^^
Datos históricos de la estación: Murcia-Puente Tocinos
Diario Informe para Abril 16, 2019 Unidades:  Ambas    Ingés   Métrico
Diario Semanal Mensual Anual
  Máxima: Mínima: Promedio:
Temperatura: 87.4 °F /  30.8 °C 75.9 °F /  24.4 °C 81.1 °F /  27.3 °C
Punto de rocio: 73.8 °F /  23.2 °C 63.5 °F /  17.5 °C 69.1 °F /  20.6 °C
Humedad: 91% 47.8% 69%
Velocidad viento: 13.7mph /  22.1km/h - 7mph /  11.3km/h
Racha viento: 24.2mph /  38.9km/h - -
Viento- - NE
Presión: 29.9 in /  1014.0 hPa 29.9 in /  1011.1 hPa -
Precipitación: 0 in /  0.0 mm    
 
 
Tabla de datos para Abril 16, 2019
Hora Temperatura Punto de rocio Presión Viento Velocidad viento Racha viento Humedad Intensidad lluvia(por hora) Nubes
00:04 78.3 °F /  25.7 °C 72.3 °F /  22.4 °C 29.9in /  1011.1hPa NE 8.1mph /  13km/h 14mph /  22.5km/h 82% 0in /  0.0mm
00:09 78.3 °F /  25.7 °C 72.3 °F /  22.4 °C 29.9in /  1011.1hPa NE 7.8mph /  12.5km/h 11mph /  17.7km/h 82% 0in /  0.0mm
00:14 78.3 °F /  25.7 °C 72.3 °F /  22.4 °C 29.9in /  1011.1hPa NE 6.9mph /  11.1km/h 12.7mph /  20.4km/h 82% 0in /  0.0mm
00:19 78.1 °F /  25.6 °C 72.3 °F /  22.4 °C 29.9in /  1011.2hPa NE 7.1mph /  11.4km/h 13.8mph /  22.2km/h 82.6% 0in /  0.0mm
00:24 78.1 °F /  25.6 °C 72.5 °F /  22.5 °C 29.9in /  1011.2hPa NE 7.6mph /  12.2km/h 14mph /  22.5km/h 83% 0in /  0.0mm
00:29 78.1 °F /  25.6 °C 72.5 °F /  22.5 °C 29.9in /  1011.2hPa NE 7.6mph /  12.2km/h 14mph /  22.5km/h 83% 0in /  0.0mm
00:34 78.3 °F /  25.7 °C 72.7 °F /  22.6 °C 29.9in /  1011.2hPa NE 7.6mph /  12.2km/h 12mph /  19.3km/h 83% 0in /  0.0mm
00:39 78.3 °F /  25.7 °C 72.9 °F /  22.7 °C 29.9in /  1011.2hPa NE 7.5mph /  12.1km/h 12.3mph /  19.8km/h 83.7% 0in /  0.0mm
00:44 78.1 °F /  25.6 °C 72.9 °F /  22.7 °C 29.9in /  1011.2hPa NE 7.4mph /  11.9km/h 13mph /  20.9km/h 84% 0in /  0.0mm
00:49 78.1 °F /  25.6 °C 73 °F /  22.8 °C 29.9in /  1011.4hPa NE 7.5mph /  12km/h 12mph /  19.3km/h 84.6% 0in /  0.0mm
00:54 78.1 °F /  25.6 °C 73 °F /  22.8 °C 29.9in /  1011.4hPa NE 7.6mph /  12.2km/h 10.4mph /  16.7km/h 84.4% 0in /  0.0mm
00:59 78.1 °F /  25.6 °C 73.2 °F /  22.9 °C 29.9in /  1011.4hPa NE 7mph /  11.3km/h 10.4mph /  16.7km/h 85% 0in /  0.0mm
01:04 78.1 °F /  25.6 °C 73.2 °F /  22.9 °C 29.9in /  1011.5hPa NE 5.9mph /  9.5km/h 9.2mph /  14.8km/h 85% 0in /  0.0mm
01:09 77.9 °F /  25.5 °C 73.2 °F /  22.9 °C 29.9in /  1011.5hPa NE 5.9mph /  9.5km/h 9.7mph /  15.6km/h 85.4% 0in /  0.0mm
01:14 77.9 °F /  25.5 °C 73.4 °F /  23 °C 29.9in /  1011.5hPa NE 5.9mph /  9.5km/h 10mph /  16.1km/h 86% 0in /  0.0mm
01:19 77.7 °F /  25.4 °C 73.2 °F /  22.9 °C 29.9in /  1011.6hPa NE 5.8mph /  9.3km/h 11.5mph /  18.5km/h 86% 0in /  0.0mm
01:24 77.5 °F /  25.3 °C 73 °F /  22.8 °C 29.9in /  1011.6hPa NE 5.4mph /  8.7km/h 12mph /  19.3km/h 86% 0in /  0.0mm
01:29 77.5 °F /  25.3 °C 73.4 °F /  23 °C 29.9in /  1011.6hPa NE 5.4mph /  8.7km/h 9.7mph /  15.6km/h 86.9% 0in /  0.0mm
01:34 77.5 °F /  25.3 °C 73.4 °F /  23 °C 29.9in /  1011.6hPa NE 5.4mph /  8.7km/h 10.4mph /  16.7km/h 87% 0in /  0.0mm
01:39 77.5 °F /  25.3 °C 73.4 °F /  23 °C 29.9in /  1011.5hPa NE 5.5mph /  8.9km/h 10mph /  16.1km/h 87% 0in /  0.0mm
01:44 77.5 °F /  25.3 °C 73.4 °F /  23 °C 29.9in /  1011.5hPa NE 5.9mph /  9.5km/h 9mph /  14.5km/h 87% 0in /  0.0mm
01:49 77.5 °F /  25.3 °C 73.4 °F /  23 °C 29.9in /  1011.6hPa NNE 5.5mph /  8.8km/h 9.2mph /  14.8km/h 87% 0in /  0.0mm
01:54 77.4 °F /  25.2 °C 73.2 °F /  22.9 °C 29.9in /  1011.6hPa NE 4.3mph /  6.9km/h 9mph /  14.5km/h 87% 0in /  0.0mm
01:59 77.4 °F /  25.2 °C 73.2 °F /  22.9 °C 29.9in /  1011.6hPa NE 4.5mph /  7.2km/h 9mph /  14.5km/h 87% 0in /  0.0mm
02:04 77.4 °F /  25.2 °C 73.2 °F /  22.9 °C 29.9in /  1011.7hPa NE 4.7mph /  7.6km/h 8.5mph /  13.7km/h 87% 0in /  0.0mm
02:09 77.4 °F /  25.2 °C 73.2 °F /  22.9 °C 29.9in /  1011.7hPa NE 4.7mph /  7.6km/h 9mph /  14.5km/h 87% 0in /  0.0mm
02:14 77.4 °F /  25.2 °C 73.2 °F /  22.9 °C 29.9in /  1011.7hPa NE 4.7mph /  7.6km/h 8mph /  12.9km/h 87% 0in /  0.0mm
02:19 77.4 °F /  25.2 °C 73.2 °F /  22.9 °C 29.9in /  1011.7hPa NNE 4.5mph /  7.3km/h 7.4mph /  11.9km/h 87% 0in /  0.0mm
02:24 77.4 °F /  25.2 °C 73.2 °F /  22.9 °C 29.9in /  1011.7hPa NE 4mph /  6.5km/h 7mph /  11.3km/h 87% 0in /  0.0mm
02:29 77.4 °F /  25.2 °C 73.2 °F /  22.9 °C 29.9in /  1011.7hPa NNE 4mph /  6.5km/h 8.1mph /  13km/h 87% 0in /  0.0mm
02:34 77.2 °F /  25.1 °C 73 °F /  22.8 °C 29.9in /  1011.7hPa NE 4mph /  6.5km/h 8.1mph /  13km/h 87% 0in /  0.0mm
02:39 77.2 °F /  25.1 °C 73 °F /  22.8 °C 29.9in /  1011.7hPa NE 4.2mph /  6.8km/h 8.1mph /  13km/h 87% 0in /  0.0mm
02:44 77.2 °F /  25.1 °C 73 °F /  22.8 °C 29.9in /  1011.7hPa NE 4.7mph /  7.6km/h 8.5mph /  13.7km/h 87% 0in /  0.0mm
02:49 77.2 °F /  25.1 °C 73.2 °F /  22.9 °C 29.9in /  1011.9hPa NNE 4.7mph /  7.6km/h 9mph /  14.5km/h 88% 0in /  0.0mm
02:54 77.2 °F /  25.1 °C 73.2 °F /  22.9 °C 29.9in /  1011.9hPa NE 4.7mph /  7.6km/h 9.2mph /  14.8km/h 88% 0in /  0.0mm
02:59 77.2 °F /  25.1 °C 73.2 °F /  22.9 °C 29.9in /  1011.9hPa NE 4.7mph /  7.6km/h 9mph /  14.5km/h 88% 0in /  0.0mm
03:04 77.2 °F /  25.1 °C 73.2 °F /  22.9 °C 29.9in /  1011.9hPa NE 4.7mph /  7.6km/h 9mph /  14.5km/h 88% 0in /  0.0mm
03:09 77.2 °F /  25.1 °C 73.2 °F /  22.9 °C 29.9in /  1011.9hPa NE 4.9mph /  7.9km/h 10.7mph /  17.2km/h 88% 0in /  0.0mm
03:14 77.2 °F /  25.1 °C 73.2 °F /  22.9 °C 29.9in /  1011.9hPa NE 5.4mph /  8.7km/h 11mph /  17.7km/h 88% 0in /  0.0mm
03:19 77.4 °F /  25.2 °C 73.4 °F /  23 °C 29.9in /  1011.9hPa NE 5.3mph /  8.6km/h 10mph /  16.1km/h 88% 0in /  0.0mm
03:24 77.4 °F /  25.2 °C 73.4 °F /  23 °C 29.9in /  1011.8hPa NE 5.2mph /  8.4km/h 7mph /  11.3km/h 88% 0in /  0.0mm
03:29 77.4 °F /  25.2 °C 73.6 °F /  23.1 °C 29.9in /  1011.8hPa NE 5mph /  8km/h 7.6mph /  12.2km/h 88% 0in /  0.0mm
03:34 77.4 °F /  25.2 °C 73.4 °F /  23 °C 29.9in /  1012.0hPa NE 4.3mph /  6.9km/h 8.1mph /  13km/h 88% 0in /  0.0mm
03:39 77.2 °F /  25.1 °C 73.2 °F /  22.9 °C 29.9in /  1012.0hPa NE 4.8mph /  7.7km/h 10.7mph /  17.2km/h 88% 0in /  0.0mm
03:44 77.2 °F /  25.1 °C 73.4 °F /  23 °C 29.9in /  1012.0hPa NE 5.9mph /  9.5km/h 11mph /  17.7km/h 88.4% 0in /  0.0mm
03:49 77.2 °F /  25.1 °C 73.8 °F /  23.2 °C 29.9in /  1012.0hPa NE 5.7mph /  9.2km/h 9mph /  14.5km/h 89% 0in /  0.0mm
03:54 77.2 °F /  25.1 °C 73.8 °F /  23.2 °C 29.9in /  1011.9hPa NE 5.2mph /  8.4km/h 8.1mph /  13km/h 89% 0in /  0.0mm
03:59 77.2 °F /  25.1 °C 73.8 °F /  23.2 °C 29.9in /  1011.9hPa NE 4.9mph /  7.9km/h 8mph /  12.9km/h 89% 0in /  0.0mm
04:04 77.2 °F /  25.1 °C 73.8 °F /  23.2 °C 29.9in /  1012.0hPa NE 4.3mph /  6.9km/h 8.1mph /  13km/h 89% 0in /  0.0mm
04:09 77.2 °F /  25.1 °C 73.6 °F /  23.1 °C 29.9in /  1012.0hPa NE 4.4mph /  7.1km/h 8.1mph /  13km/h 89% 0in /  0.0mm
04:14 77.2 °F /  25.1 °C 73.6 °F /  23.1 °C 29.9in /  1012.0hPa NE 4.7mph /  7.6km/h 8mph /  12.9km/h 89% 0in /  0.0mm
04:19 77.2 °F /  25.1 °C 73.6 °F /  23.1 °C 29.9in /  1012.0hPa NE 4.3mph /  7km/h 6.2mph /  10km/h 89% 0in /  0.0mm
04:24 77.2 °F /  25.1 °C 73.6 °F /  23.1 °C 29.9in /  1011.8hPa NE 3.6mph /  5.8km/h 8.1mph /  13km/h 89% 0in /  0.0mm
04:29 77.2 °F /  25.1 °C 73.6 °F /  23.1 °C 29.9in /  1011.8hPa NE 3.9mph /  6.3km/h 8mph /  12.9km/h 89% 0in /  0.0mm
04:34 77.2 °F /  25.1 °C 73.8 °F /  23.2 °C 29.9in /  1011.8hPa NE 4.7mph /  7.6km/h 7.4mph /  11.9km/h 89% 0in /  0.0mm
04:39 77.2 °F /  25.1 °C 73.8 °F /  23.2 °C 29.9in /  1011.8hPa NE 4.5mph /  7.2km/h 9.2mph /  14.8km/h 89% 0in /  0.0mm
04:44 77.2 °F /  25.1 °C 73.8 °F /  23.2 °C 29.9in /  1011.8hPa NE 4mph /  6.5km/h 9mph /  14.5km/h 89% 0in /  0.0mm
04:49 77.2 °F /  25.1 °C 73.8 °F /  23.2 °C 29.9in /  1012.0hPa NE 4.1mph /  6.6km/h 6.9mph /  11.1km/h 89% 0in /  0.0mm
04:54 77.2 °F /  25.1 °C 73.8 °F /  23.2 °C 29.9in /  1012.0hPa NNE 4.3mph /  6.9km/h 7mph /  11.3km/h 89% 0in /  0.0mm
04:59 77.2 °F /  25.1 °C 73.8 °F /  23.2 °C 29.9in /  1012.0hPa NE 4.2mph /  6.8km/h 7mph /  11.3km/h 89% 0in /  0.0mm
05:04 77.2 °F /  25.1 °C 73.8 °F /  23.2 °C 29.9in /  1012.0hPa NE 4mph /  6.5km/h 7mph /  11.3km/h 89% 0in /  0.0mm
05:09 77.2 °F /  25.1 °C 73.8 °F /  23.2 °C 29.9in /  1012.0hPa NE 3.7mph /  6km/h 6.9mph /  11.1km/h 89% 0in /  0.0mm
05:14 77 °F /  25 °C 73.6 °F /  23.1 °C 29.9in /  1012.0hPa NE 3.1mph /  5km/h 7mph /  11.3km/h 89% 0in /  0.0mm
05:19 77 °F /  25 °C 73.6 °F /  23.1 °C 29.9in /  1012.0hPa NNE 3.4mph /  5.4km/h 6.2mph /  10km/h 89% 0in /  0.0mm
05:24 76.8 °F /  24.9 °C 73.4 °F /  23 °C 29.9in /  1012.0hPa NE 4mph /  6.5km/h 6.2mph /  10km/h 89% 0in /  0.0mm
05:29 76.8 °F /  24.9 °C 73.4 °F /  23 °C 29.9in /  1012.0hPa NE 3.9mph /  6.3km/h 6mph /  9.7km/h 89% 0in /  0.0mm
05:34 76.8 °F /  24.9 °C 73.4 °F /  23 °C 29.9in /  1012.0hPa NNE 3.6mph /  5.8km/h 6.9mph /  11.1km/h 89.2% 0in /  0.0mm
05:39 76.8 °F /  24.9 °C 73.6 °F /  23.1 °C 29.9in /  1012.0hPa NNE 3.7mph /  6km/h 7mph /  11.3km/h 89.7% 0in /  0.0mm
05:44 76.8 °F /  24.9 °C 73.8 °F /  23.2 °C 29.9in /  1012.0hPa NE 4mph /  6.5km/h 7.4mph /  11.9km/h 90% 0in /  0.0mm
05:49 76.8 °F /  24.9 °C 73.6 °F /  23.1 °C 29.9in /  1012.0hPa NE 4mph /  6.5km/h 7mph /  11.3km/h 90% 0in /  0.0mm
05:54 76.8 °F /  24.9 °C 73.6 °F /  23.1 °C 29.9in /  1012.0hPa NE 4mph /  6.5km/h 7mph /  11.3km/h 90% 0in /  0.0mm
05:59 76.6 °F /  24.8 °C 73.6 °F /  23.1 °C 29.9in /  1012.0hPa NE 4mph /  6.5km/h 7.4mph /  11.9km/h 90% 0in /  0.0mm
06:04 76.6 °F /  24.8 °C 73.6 °F /  23.1 °C 29.9in /  1012.2hPa NE 4mph /  6.5km/h 7mph /  11.3km/h 90% 0in /  0.0mm
06:09 76.6 °F /  24.8 °C 73.6 °F /  23.1 °C 29.9in /  1012.2hPa NE 3.9mph /  6.3km/h 7.6mph /  12.2km/h 90% 0in /  0.0mm
06:14 76.6 °F /  24.8 °C 73.6 °F /  23.1 °C 29.9in /  1012.2hPa NE 3.6mph /  5.8km/h 8.1mph /  13km/h 90% 0in /  0.0mm
06:19 76.6 °F /  24.8 °C 73.6 °F /  23.1 °C 29.9in /  1012.5hPa NE 3.8mph /  6.1km/h 8.5mph /  13.7km/h 90% 0in /  0.0mm
06:24 76.6 °F /  24.8 °C 73.6 °F /  23.1 °C 29.9in /  1012.5hPa NE 4.3mph /  6.9km/h 9mph /  14.5km/h 90% 0in /  0.0mm
06:29 76.6 °F /  24.8 °C 73.6 °F /  23.1 °C 29.9in /  1012.5hPa NNE 4.6mph /  7.4km/h 9.7mph /  15.6km/h 90% 0in /  0.0mm
06:34 76.6 °F /  24.8 °C 73.6 °F /  23.1 °C 29.9in /  1012.5hPa NNE 5.4mph /  8.7km/h 10mph /  16.1km/h 90% 0in /  0.0mm
06:39 76.6 °F /  24.8 °C 73.4 °F /  23 °C 29.9in /  1012.5hPa NE 5.3mph /  8.6km/h 9mph /  14.5km/h 90% 0in /  0.0mm
06:44 76.5 °F /  24.7 °C 73.4 °F /  23 °C 29.9in /  1012.5hPa NE 5.2mph /  8.4km/h 8.1mph /  13km/h 90% 0in /  0.0mm
06:49 76.5 °F /  24.7 °C 73.2 °F /  22.9 °C 29.9in /  1012.7hPa NE 4.9mph /  7.9km/h 8mph /  12.9km/h 90% 0in /  0.0mm
06:54 76.5 °F /  24.7 °C 73.4 °F /  23 °C 29.9in /  1012.7hPa NE 4.3mph /  6.9km/h 9.2mph /  14.8km/h 90.1% 0in /  0.0mm
06:59 76.3 °F /  24.6 °C 73.6 °F /  23.1 °C 29.9in /  1012.7hPa NE 4.4mph /  7.1km/h 9.2mph /  14.8km/h 91% 0in /  0.0mm
07:04 76.3 °F /  24.6 °C 73.6 °F /  23.1 °C 29.9in /  1012.8hPa NE 4.7mph /  7.6km/h 8.1mph /  13km/h 91% 0in /  0.0mm
07:09 76.3 °F /  24.6 °C 73.6 °F /  23.1 °C 29.9in /  1012.8hPa NE 4.7mph /  7.6km/h 9.2mph /  14.8km/h 91% 0in /  0.0mm
07:14 76.3 °F /  24.6 °C 73.4 °F /  23 °C 29.9in /  1012.8hPa NE 4.7mph /  7.6km/h 9.7mph /  15.6km/h 91% 0in /  0.0mm
07:19 76.1 °F /  24.5 °C 73.2 °F /  22.9 °C 29.9in /  1012.9hPa NE 5mph /  8.1km/h 10mph /  16.1km/h 91% 0in /  0.0mm
07:24 75.9 °F /  24.4 °C 73 °F /  22.8 °C 29.9in /  1012.9hPa NE 5.9mph /  9.5km/h 7mph /  11.3km/h 91% 0in /  0.0mm
07:29 75.9 °F /  24.4 °C 73 °F /  22.8 °C 29.9in /  1012.9hPa NE 5.3mph /  8.6km/h 6mph /  9.7km/h 91% 0in /  0.0mm
07:34 75.9 °F /  24.4 °C 73 °F /  22.8 °C 29.9in /  1013.0hPa NE 4mph /  6.5km/h 9.2mph /  14.8km/h 91% 0in /  0.0mm
07:39 75.9 °F /  24.4 °C 73.2 °F /  22.9 °C 29.9in /  1013.0hPa NE 4.2mph /  6.8km/h 9mph /  14.5km/h 91% 0in /  0.0mm
07:44 76.1 °F /  24.5 °C 73.4 °F /  23 °C 29.9in /  1013.0hPa NE 4.7mph /  7.6km/h 6mph /  9.7km/h 91% 0in /  0.0mm
07:49 76.3 °F /  24.6 °C 73.6 °F /  23.1 °C 29.9in /  1013.0hPa NE 4.5mph /  7.2km/h 6.2mph /  10km/h 91% 0in /  0.0mm
07:54 76.5 °F /  24.7 °C 73.4 °F /  23 °C 29.9in /  1013.0hPa NE 4mph /  6.5km/h 6mph /  9.7km/h 90.6% 0in /  0.0mm
07:59 76.5 °F /  24.7 °C 73.4 °F /  23 °C 29.9in /  1013.0hPa NNE 3.9mph /  6.3km/h 5.2mph /  8.4km/h 90% 0in /  0.0mm
08:04 76.6 °F /  24.8 °C 73.6 °F /  23.1 °C 29.9in /  1013.2hPa North 3.6mph /  5.8km/h 5mph /  8km/h 90% 0in /  0.0mm
08:09 76.8 °F /  24.9 °C 73.8 °F /  23.2 °C 29.9in /  1013.2hPa NNE 3.4mph /  5.4km/h 5mph /  8km/h 89.9% 0in /  0.0mm
08:14 77.2 °F /  25.1 °C 73.8 °F /  23.2 °C 29.9in /  1013.2hPa NE 2mph /  3.2km/h 5mph /  8km/h 89% 0in /  0.0mm
08:19 77.4 °F /  25.2 °C 73.6 °F /  23.1 °C 29.9in /  1013.4hPa NNE 2.1mph /  3.4km/h 5mph /  8km/h 88.2% 0in /  0.0mm
08:24 77.4 °F /  25.2 °C 73.6 °F /  23.1 °C 29.9in /  1013.4hPa NE 2.4mph /  3.9km/h 5mph /  8km/h 88% 0in /  0.0mm
08:29 77.5 °F /  25.3 °C 73.6 °F /  23.1 °C 29.9in /  1013.4hPa NNE 2.4mph /  3.9km/h 5mph /  8km/h 87.7% 0in /  0.0mm
08:34 77.5 °F /  25.3 °C 73.4 °F /  23 °C 29.9in /  1013.5hPa NNE 2.4mph /  3.9km/h 5mph /  8km/h 87% 0in /  0.0mm
08:39 77.5 °F /  25.3 °C 73.6 °F /  23.1 °C 29.9in /  1013.5hPa NNE 2.4mph /  3.9km/h 5mph /  8km/h 87.5% 0in /  0.0mm
08:44 77.7 °F /  25.4 °C 73.8 °F /  23.2 °C 29.9in /  1013.5hPa North 2.4mph /  3.9km/h 5mph /  8km/h 87.5% 0in /  0.0mm
08:49 78.1 °F /  25.6 °C 73.8 °F /  23.2 °C 29.9in /  1013.6hPa NNE 2.4mph /  3.9km/h 5.4mph /  8.7km/h 86.6% 0in /  0.0mm
08:54 78.3 °F /  25.7 °C 73.6 °F /  23.1 °C 29.9in /  1013.6hPa NNE 2.4mph /  3.9km/h 6.9mph /  11.1km/h 85.5% 0in /  0.0mm
08:59 78.3 °F /  25.7 °C 73.6 °F /  23.1 °C 29.9in /  1013.6hPa NNE 2.8mph /  4.5km/h 7mph /  11.3km/h 85.4% 0in /  0.0mm
09:04 78.4 °F /  25.8 °C 73.8 °F /  23.2 °C 29.9in /  1013.8hPa NE 3.6mph /  5.8km/h 6.9mph /  11.1km/h 85.1% 0in /  0.0mm
09:09 78.4 °F /  25.8 °C 73.4 °F /  23 °C 29.9in /  1013.8hPa NE 3.7mph /  6km/h 8.5mph /  13.7km/h 84.3% 0in /  0.0mm
09:14 78.6 °F /  25.9 °C 73.4 °F /  23 °C 29.9in /  1013.8hPa NNE 4mph /  6.5km/h 9mph /  14.5km/h 84.2% 0in /  0.0mm
09:19 78.6 °F /  25.9 °C 73.4 °F /  23 °C 29.9in /  1013.8hPa NE 3.7mph /  6km/h 8.1mph /  13km/h 84% 0in /  0.0mm
09:24 78.8 °F /  26 °C 73 °F /  22.8 °C 29.9in /  1013.8hPa NE 3.1mph /  5km/h 8mph /  12.9km/h 82.5% 0in /  0.0mm
09:29 79 °F /  26.1 °C 72.7 °F /  22.6 °C 29.9in /  1013.8hPa NNE 3.5mph /  5.6km/h 8.1mph /  13km/h 81.1% 0in /  0.0mm
09:34 79 °F /  26.1 °C 72.5 °F /  22.5 °C 29.9in /  1013.8hPa NE 4.3mph /  6.9km/h 8.1mph /  13km/h 80.5% 0in /  0.0mm
09:39 79.2 °F /  26.2 °C 72.5 °F /  22.5 °C 29.9in /  1013.8hPa NE 4.4mph /  7.1km/h 8.1mph /  13km/h 80.2% 0in /  0.0mm
09:44 79 °F /  26.1 °C 72.3 °F /  22.4 °C 29.9in /  1013.8hPa NE 4.7mph /  7.6km/h 11.5mph /  18.5km/h 80% 0in /  0.0mm
09:49 79 °F /  26.1 °C 72.3 °F /  22.4 °C 29.9in /  1013.8hPa NE 5.2mph /  8.3km/h 12mph /  19.3km/h 80% 0in /  0.0mm
09:54 79.2 °F /  26.2 °C 72.5 °F /  22.5 °C 29.9in /  1013.8hPa NE 6.2mph /  10km/h 11mph /  17.7km/h 79.9% 0in /  0.0mm
09:59 79.5 °F /  26.4 °C 72.3 °F /  22.4 °C 29.9in /  1013.8hPa NE 6.1mph /  9.8km/h 9mph /  14.5km/h 78.6% 0in /  0.0mm
10:04 80.2 °F /  26.8 °C 72.5 °F /  22.5 °C 29.9in /  1013.8hPa NE 5.9mph /  9.5km/h 9.2mph /  14.8km/h 77.6% 0in /  0.0mm
10:09 80.4 °F /  26.9 °C 72.3 °F /  22.4 °C 29.9in /  1013.8hPa NE 5.8mph /  9.3km/h 10.7mph /  17.2km/h 76.3% 0in /  0.0mm
10:14 80.8 °F /  27.1 °C 72.3 °F /  22.4 °C 29.9in /  1013.8hPa NE 5.4mph /  8.7km/h 11mph /  17.7km/h 75.3% 0in /  0.0mm
10:19 81.1 °F /  27.3 °C 71.2 °F /  21.8 °C 29.9in /  1013.8hPa NE 5.3mph /  8.6km/h 11.8mph /  19km/h 72% 0in /  0.0mm
10:24 81.5 °F /  27.5 °C 70.3 °F /  21.3 °C 29.9in /  1013.8hPa ENE 5.2mph /  8.4km/h 12mph /  19.3km/h 69% 0in /  0.0mm
10:29 81.9 °F /  27.7 °C 70.5 °F /  21.4 °C 29.9in /  1013.8hPa NE 5.4mph /  8.7km/h 13.5mph /  21.7km/h 68.7% 0in /  0.0mm
10:34 82 °F /  27.8 °C 69.4 °F /  20.8 °C 29.9in /  1013.8hPa NE 5.9mph /  9.5km/h 14mph /  22.5km/h 65.7% 0in /  0.0mm
10:39 82.2 °F /  27.9 °C 69.4 °F /  20.8 °C 29.9in /  1013.8hPa NE 6.3mph /  10.2km/h 13mph /  20.9km/h 65.4% 0in /  0.0mm
10:44 82.2 °F /  27.9 °C 69.6 °F /  20.9 °C 29.9in /  1013.8hPa NE 7.4mph /  11.9km/h 13.8mph /  22.2km/h 66.1% 0in /  0.0mm
10:49 82.8 °F /  28.2 °C 68.9 °F /  20.5 °C 29.9in /  1013.9hPa NE 7.3mph /  11.7km/h 14mph /  22.5km/h 63.2% 0in /  0.0mm
10:54 83.3 °F /  28.5 °C 69.4 °F /  20.8 °C 29.9in /  1013.9hPa NE 6.9mph /  11.1km/h 13mph /  20.9km/h 63.2% 0in /  0.0mm
10:59 83.1 °F /  28.4 °C 68.2 °F /  20.1 °C 29.9in /  1013.9hPa NE 7.1mph /  11.4km/h 15mph /  24.1km/h 61% 0in /  0.0mm
11:04 82.9 °F /  28.3 °C 68.9 °F /  20.5 °C 29.9in /  1014.0hPa ENE 7.4mph /  11.9km/h 16.3mph /  26.2km/h 62.7% 0in /  0.0mm
11:09 82.9 °F /  28.3 °C 68.2 °F /  20.1 °C 29.9in /  1014.0hPa NE 7.5mph /  12km/h 16mph /  25.7km/h 61% 0in /  0.0mm
11:14 83.1 °F /  28.4 °C 67.8 °F /  19.9 °C 29.9in /  1014.0hPa NNE 7.6mph /  12.2km/h 16.3mph /  26.2km/h 60.1% 0in /  0.0mm
11:19 83.1 °F /  28.4 °C 67.8 °F /  19.9 °C 29.9in /  1014.0hPa NE 8mph /  12.8km/h 16mph /  25.7km/h 60.1% 0in /  0.0mm
11:24 83.5 °F /  28.6 °C 68 °F /  20 °C 29.9in /  1013.9hPa ENE 8.7mph /  14km/h 15mph /  24.1km/h 59.6% 0in /  0.0mm
11:29 83.8 °F /  28.8 °C 68.4 °F /  20.2 °C 29.9in /  1013.9hPa NE 8.2mph /  13.2km/h 12.7mph /  20.4km/h 59.9% 0in /  0.0mm
11:34 84.2 °F /  29 °C 68.7 °F /  20.4 °C 29.9in /  1013.9hPa ENE 6.9mph /  11.1km/h 13mph /  20.9km/h 60% 0in /  0.0mm
11:39 84.6 °F /  29.2 °C 68 °F /  20 °C 29.9in /  1013.9hPa NE 6.6mph /  10.6km/h 17.3mph /  27.8km/h 57.6% 0in /  0.0mm
11:44 84.4 °F /  29.1 °C 67.5 °F /  19.7 °C 29.9in /  1013.9hPa NE 5.9mph /  9.5km/h 17mph /  27.4km/h 56.9% 0in /  0.0mm
11:49 84 °F /  28.9 °C 66.7 °F /  19.3 °C 29.9in /  1013.9hPa NE 6.6mph /  10.7km/h 16.3mph /  26.2km/h 56% 0in /  0.0mm
11:54 84 °F /  28.9 °C 66.6 °F /  19.2 °C 29.9in /  1013.7hPa NE 8.5mph /  13.7km/h 17.8mph /  28.6km/h 56% 0in /  0.0mm
11:59 84.6 °F /  29.2 °C 67.1 °F /  19.5 °C 29.9in /  1013.7hPa NE 8.3mph /  13.4km/h 18mph /  29km/h 56% 0in /  0.0mm
12:04 84.7 °F /  29.3 °C 67.5 °F /  19.7 °C 29.9in /  1013.7hPa NE 8.1mph /  13km/h 14.7mph /  23.7km/h 56% 0in /  0.0mm
12:09 84.7 °F /  29.3 °C 67.5 °F /  19.7 °C 29.9in /  1013.6hPa NE 8.3mph /  13.3km/h 15mph /  24.1km/h 56% 0in /  0.0mm
12:14 84.6 °F /  29.2 °C 66.9 °F /  19.4 °C 29.9in /  1013.6hPa NE 8.7mph /  14km/h 16.8mph /  27km/h 55.6% 0in /  0.0mm
12:19 84.6 °F /  29.2 °C 66.6 °F /  19.2 °C 29.9in /  1013.6hPa NE 8.6mph /  13.9km/h 17.3mph /  27.8km/h 54.9% 0in /  0.0mm
12:24 84.7 °F /  29.3 °C 66.2 °F /  19 °C 29.9in /  1013.6hPa NE 8.5mph /  13.7km/h 17.3mph /  27.8km/h 53.9% 0in /  0.0mm
12:29 84.9 °F /  29.4 °C 66 °F /  18.9 °C 29.9in /  1013.6hPa NE 8.7mph /  14km/h 17mph /  27.4km/h 53.1% 0in /  0.0mm
12:34 85.1 °F /  29.5 °C 66 °F /  18.9 °C 29.9in /  1013.6hPa NE 9.2mph /  14.8km/h 16.1mph /  25.9km/h 53% 0in /  0.0mm
12:39 85.3 °F /  29.6 °C 65.7 °F /  18.7 °C 29.9in /  1013.6hPa NE 8.9mph /  14.3km/h 16mph /  25.7km/h 52.1% 0in /  0.0mm
12:44 85.3 °F /  29.6 °C 66 °F /  18.9 °C 29.9in /  1013.6hPa NE 8.1mph /  13km/h 19mph /  30.6km/h 52.7% 0in /  0.0mm
12:49 85.1 °F /  29.5 °C 65.8 °F /  18.8 °C 29.9in /  1013.6hPa NE 8.7mph /  14km/h 20mph /  32.2km/h 52.6% 0in /  0.0mm
12:54 85.5 °F /  29.7 °C 66 °F /  18.9 °C 29.9in /  1013.5hPa NE 10.2mph /  16.4km/h 20mph /  32.2km/h 52.4% 0in /  0.0mm
12:59 85.5 °F /  29.7 °C 65.7 °F /  18.7 °C 29.9in /  1013.5hPa NE 10.4mph /  16.7km/h 19mph /  30.6km/h 51.9% 0in /  0.0mm
13:04 85.5 °F /  29.7 °C 65.7 °F /  18.7 °C 29.9in /  1013.5hPa NE 10.7mph /  17.2km/h 19mph /  30.6km/h 52% 0in /  0.0mm
13:09 85.5 °F /  29.7 °C 65.8 °F /  18.8 °C 29.9in /  1013.5hPa NE 10.4mph /  16.7km/h 17.3mph /  27.8km/h 52% 0in /  0.0mm
13:14 85.8 °F /  29.9 °C 66 °F /  18.9 °C 29.9in /  1013.5hPa NE 9.7mph /  15.6km/h 18.4mph /  29.6km/h 51.7% 0in /  0.0mm
13:19 86 °F /  30 °C 66 °F /  18.9 °C 29.9in /  1013.5hPa NE 9.4mph /  15.1km/h 18mph /  29km/h 51.4% 0in /  0.0mm
13:24 86 °F /  30 °C 66 °F /  18.9 °C 29.9in /  1013.4hPa NE 8.7mph /  14km/h 22.3mph /  35.9km/h 51.3% 0in /  0.0mm
13:29 85.6 °F /  29.8 °C 65.7 °F /  18.7 °C 29.9in /  1013.4hPa NE 9.4mph /  15.2km/h 22mph /  35.4km/h 51.3% 0in /  0.0mm
13:34 85.8 °F /  29.9 °C 66 °F /  18.9 °C 29.9in /  1013.4hPa NE 11.2mph /  18km/h 19mph /  30.6km/h 51.7% 0in /  0.0mm
13:39 86.2 °F /  30.1 °C 65.1 °F /  18.4 °C 29.9in /  1013.4hPa NE 11.2mph /  18km/h 20.7mph /  33.3km/h 49.7% 0in /  0.0mm
13:44 86 °F /  30 °C 64.9 °F /  18.3 °C 29.9in /  1013.4hPa Este 11.2mph /  18km/h 21mph /  33.8km/h 49.5% 0in /  0.0mm
13:49 86.4 °F /  30.2 °C 65.5 °F /  18.6 °C 29.9in /  1013.4hPa ENE 11.1mph /  17.8km/h 18.4mph /  29.6km/h 49.9% 0in /  0.0mm
13:54 86.5 °F /  30.3 °C 65.3 °F /  18.5 °C 29.9in /  1013.3hPa NE 10.7mph /  17.2km/h 18mph /  29km/h 49.5% 0in /  0.0mm
13:59 86.5 °F /  30.3 °C 65.5 °F /  18.6 °C 29.9in /  1013.3hPa ENE 10.4mph /  16.8km/h 19.6mph /  31.5km/h 49.4% 0in /  0.0mm
14:04 86.7 °F /  30.4 °C 65.7 °F /  18.7 °C 29.9in /  1013.3hPa NE 10mph /  16.1km/h 20mph /  32.2km/h 49.4% 0in /  0.0mm
14:09 87.1 °F /  30.6 °C 66 °F /  18.9 °C 29.9in /  1013.1hPa ENE 9.6mph /  15.5km/h 20.7mph /  33.3km/h 50% 0in /  0.0mm
14:14 87.1 °F /  30.6 °C 66.2 °F /  19 °C 29.9in /  1013.1hPa ENE 8.7mph /  14km/h 21mph /  33.8km/h 49.9% 0in /  0.0mm
14:19 86.7 °F /  30.4 °C 65.5 °F /  18.6 °C 29.9in /  1013.1hPa NE 9.4mph /  15.2km/h 22.3mph /  35.9km/h 49.4% 0in /  0.0mm
14:24 86.9 °F /  30.5 °C 65.7 °F /  18.7 °C 29.9in /  1013.0hPa NE 11.2mph /  18km/h 22mph /  35.4km/h 49.3% 0in /  0.0mm
14:29 87.4 °F /  30.8 °C 65.7 °F /  18.7 °C 29.9in /  1013.0hPa NE 10.7mph /  17.3km/h 20.1mph /  32.3km/h 48.8% 0in /  0.0mm
14:34 87.3 °F /  30.7 °C 65.8 °F /  18.8 °C 29.9in /  1013.0hPa NE 9.7mph /  15.6km/h 21mph /  33.8km/h 49.1% 0in /  0.0mm
14:39 86.9 °F /  30.5 °C 66.2 °F /  19 °C 29.9in /  1012.9hPa NE 10.4mph /  16.7km/h 21mph /  33.8km/h 50.3% 0in /  0.0mm
14:44 87.3 °F /  30.7 °C 66.7 °F /  19.3 °C 29.9in /  1012.9hPa NE 11.8mph /  19km/h 23mph /  37km/h 50.9% 0in /  0.0mm
14:49 87.1 °F /  30.6 °C 66.9 °F /  19.4 °C 29.9in /  1012.9hPa ENE 11.2mph /  18.1km/h 23mph /  37km/h 51% 0in /  0.0mm
14:54 86.9 °F /  30.5 °C 67.1 °F /  19.5 °C 29.9in /  1012.9hPa ENE 10mph /  16.1km/h 20mph /  32.2km/h 51.7% 0in /  0.0mm
14:59 86.5 °F /  30.3 °C 66.9 °F /  19.4 °C 29.9in /  1012.9hPa NE 10.2mph /  16.4km/h 21.3mph /  34.3km/h 52% 0in /  0.0mm
15:04 86.5 °F /  30.3 °C 67.3 °F /  19.6 °C 29.9in /  1013.0hPa NE 10.7mph /  17.2km/h 21.3mph /  34.3km/h 52.8% 0in /  0.0mm
15:09 86.9 °F /  30.5 °C 67.3 °F /  19.6 °C 29.9in /  1013.0hPa ENE 10.7mph /  17.2km/h 21mph /  33.8km/h 52.1% 0in /  0.0mm
15:14 86.9 °F /  30.5 °C 66.6 °F /  19.2 °C 29.9in /  1013.0hPa NE 10.7mph /  17.2km/h 20mph /  32.2km/h 50.9% 0in /  0.0mm
15:19 86.7 °F /  30.4 °C 67.1 °F /  19.5 °C 29.9in /  1013.0hPa NE 10.9mph /  17.5km/h 20.8mph /  33.5km/h 52.2% 0in /  0.0mm
15:24 86.5 °F /  30.3 °C 67.1 °F /  19.5 °C 29.9in /  1012.8hPa NE 11.4mph /  18.4km/h 21.3mph /  34.3km/h 52.7% 0in /  0.0mm
15:29 86.5 °F /  30.3 °C 66.4 °F /  19.1 °C 29.9in /  1012.8hPa NE 11.5mph /  18.5km/h 21.9mph /  35.2km/h 51% 0in /  0.0mm
15:34 86.5 °F /  30.3 °C 66.6 °F /  19.2 °C 29.9in /  1012.8hPa NE 11.8mph /  19km/h 22mph /  35.4km/h 51.6% 0in /  0.0mm
15:39 86.7 °F /  30.4 °C 67.1 °F /  19.5 °C 29.9in /  1012.8hPa NE 11.2mph /  18.1km/h 21mph /  33.8km/h 51.9% 0in /  0.0mm
15:44 87.1 °F /  30.6 °C 67.1 °F /  19.5 °C 29.9in /  1012.8hPa NE 10mph /  16.1km/h 20mph /  32.2km/h 51.8% 0in /  0.0mm
15:49 87.3 °F /  30.7 °C 67.3 °F /  19.6 °C 29.9in /  1012.8hPa NE 9.8mph /  15.7km/h 20.1mph /  32.3km/h 51.6% 0in /  0.0mm
15:54 86.9 °F /  30.5 °C 66.7 °F /  19.3 °C 29.9in /  1012.8hPa NE 9.2mph /  14.8km/h 21mph /  33.8km/h 51.3% 0in /  0.0mm
15:59 86.5 °F /  30.3 °C 66.7 °F /  19.3 °C 29.9in /  1012.8hPa NE 10.3mph /  16.5km/h 21mph /  33.8km/h 51.7% 0in /  0.0mm
16:04 86.5 °F /  30.3 °C 66.4 °F /  19.1 °C 29.9in /  1012.8hPa NE 12.3mph /  19.8km/h 23.5mph /  37.8km/h 51.2% 0in /  0.0mm
16:09 86.4 °F /  30.2 °C 66.4 °F /  19.1 °C 29.9in /  1012.8hPa NE 12.7mph /  20.5km/h 23mph /  37km/h 51.5% 0in /  0.0mm
16:14 86.2 °F /  30.1 °C 66.7 °F /  19.3 °C 29.9in /  1012.8hPa NE 13.7mph /  22.1km/h 22mph /  35.4km/h 52.3% 0in /  0.0mm
16:19 86.4 °F /  30.2 °C 66.4 °F /  19.1 °C 29.9in /  1012.8hPa NE 13.3mph /  21.4km/h 23mph /  37km/h 51.3% 0in /  0.0mm
16:24 86.5 °F /  30.3 °C 66.7 °F /  19.3 °C 29.9in /  1012.7hPa NE 12.3mph /  19.8km/h 23mph /  37km/h 52% 0in /  0.0mm
16:29 86.9 °F /  30.5 °C 66.4 °F /  19.1 °C 29.9in /  1012.7hPa ENE 12mph /  19.3km/h 20mph /  32.2km/h 50.8% 0in /  0.0mm
16:34 87.1 °F /  30.6 °C 65.3 °F /  18.5 °C 29.9in /  1012.7hPa Este 11.2mph /  18km/h 19.7mph /  31.7km/h 48.7% 0in /  0.0mm
16:39 87.3 °F /  30.7 °C 66 °F /  18.9 °C 29.9in /  1012.5hPa ENE 10.7mph /  17.3km/h 20mph /  32.2km/h 49.4% 0in /  0.0mm
16:44 87.3 °F /  30.7 °C 65.7 °F /  18.7 °C 29.9in /  1012.5hPa ENE 9.7mph /  15.6km/h 17.3mph /  27.8km/h 48.7% 0in /  0.0mm
16:49 87.4 °F /  30.8 °C 65.8 °F /  18.8 °C 29.9in /  1012.5hPa NE 9.6mph /  15.4km/h 16mph /  25.7km/h 48.8% 0in /  0.0mm
16:54 87.1 °F /  30.6 °C 65.7 °F /  18.7 °C 29.9in /  1012.4hPa NE 9.2mph /  14.8km/h 21.3mph /  34.3km/h 49.1% 0in /  0.0mm
16:59 86.7 °F /  30.4 °C 65.8 °F /  18.8 °C 29.9in /  1012.4hPa NE 9.7mph /  15.6km/h 21mph /  33.8km/h 50% 0in /  0.0mm
17:04 86.7 °F /  30.4 °C 66.2 °F /  19 °C 29.9in /  1012.4hPa NE 10.7mph /  17.2km/h 19mph /  30.6km/h 50.3% 0in /  0.0mm
17:09 86.7 °F /  30.4 °C 66 °F /  18.9 °C 29.9in /  1012.4hPa ENE 10.8mph /  17.4km/h 20.7mph /  33.3km/h 50.2% 0in /  0.0mm
17:14 86.4 °F /  30.2 °C 66 °F /  18.9 °C 29.9in /  1012.4hPa ENE 11.2mph /  18km/h 21mph /  33.8km/h 50.7% 0in /  0.0mm
17:19 86.5 °F /  30.3 °C 66 °F /  18.9 °C 29.9in /  1012.4hPa NE 10.7mph /  17.3km/h 19mph /  30.6km/h 50.5% 0in /  0.0mm
17:24 86.5 °F /  30.3 °C 64.8 °F /  18.2 °C 29.9in /  1012.4hPa ENE 9.7mph /  15.6km/h 21.3mph /  34.3km/h 48.5% 0in /  0.0mm
17:29 86.7 °F /  30.4 °C 65.3 °F /  18.5 °C 29.9in /  1012.4hPa NE 9.8mph /  15.8km/h 21mph /  33.8km/h 49% 0in /  0.0mm
17:34 86.5 °F /  30.3 °C 65.1 °F /  18.4 °C 29.9in /  1012.4hPa NE 10.2mph /  16.4km/h 22.3mph /  35.9km/h 49% 0in /  0.0mm
17:39 86.4 °F /  30.2 °C 65.5 °F /  18.6 °C 29.9in /  1012.3hPa NE 10.7mph /  17.2km/h 22mph /  35.4km/h 49.8% 0in /  0.0mm
17:44 86.4 °F /  30.2 °C 65.1 °F /  18.4 °C 29.9in /  1012.3hPa NE 11.8mph /  19km/h 19mph /  30.6km/h 49.4% 0in /  0.0mm
17:49 86.4 °F /  30.2 °C 64.6 °F /  18.1 °C 29.9in /  1012.3hPa ENE 11.1mph /  17.8km/h 17mph /  27.4km/h 48.6% 0in /  0.0mm
17:54 86.4 °F /  30.2 °C 64.8 °F /  18.2 °C 29.9in /  1012.3hPa NE 9.2mph /  14.8km/h 18.5mph /  29.8km/h 48.7% 0in /  0.0mm
17:59 86.2 °F /  30.1 °C 64.2 °F /  17.9 °C 29.9in /  1012.3hPa NE 9.9mph /  16km/h 19.6mph /  31.5km/h 48% 0in /  0.0mm
18:04 86.2 °F /  30.1 °C 64.4 °F /  18 °C 29.9in /  1012.4hPa ENE 11.4mph /  18.4km/h 20mph /  32.2km/h 48.1% 0in /  0.0mm
18:09 86.4 °F /  30.2 °C 64.4 °F /  18 °C 29.9in /  1012.4hPa NE 10.7mph /  17.3km/h 18.5mph /  29.8km/h 47.8% 0in /  0.0mm
18:14 86.2 °F /  30.1 °C 64.2 °F /  17.9 °C 29.9in /  1012.4hPa NE 9.2mph /  14.8km/h 19mph /  30.6km/h 48% 0in /  0.0mm
18:19 86.2 °F /  30.1 °C 64 °F /  17.8 °C 29.9in /  1012.4hPa NE 9.3mph /  15km/h 18.4mph /  29.6km/h 48% 0in /  0.0mm
18:24 85.8 °F /  29.9 °C 64.4 °F /  18 °C 29.9in /  1012.3hPa NE 9.7mph /  15.6km/h 18.4mph /  29.6km/h 48.7% 0in /  0.0mm
18:29 85.8 °F /  29.9 °C 64.4 °F /  18 °C 29.9in /  1012.3hPa NE 10mph /  16.1km/h 18.4mph /  29.6km/h 48.9% 0in /  0.0mm
18:34 85.6 °F /  29.8 °C 64.4 °F /  18 °C 29.9in /  1012.3hPa NE 10.7mph /  17.2km/h 18mph /  29km/h 49% 0in /  0.0mm
18:39 85.6 °F /  29.8 °C 64.4 °F /  18 °C 29.9in /  1012.2hPa NE 10.5mph /  16.9km/h 20.8mph /  33.5km/h 49.4% 0in /  0.0mm
18:44 85.5 °F /  29.7 °C 64.6 °F /  18.1 °C 29.9in /  1012.2hPa NE 10mph /  16.1km/h 24.2mph /  38.9km/h 49.9% 0in /  0.0mm
18:49 85.3 °F /  29.6 °C 64.6 °F /  18.1 °C 29.9in /  1012.2hPa NE 10mph /  16.1km/h 24mph /  38.6km/h 50% 0in /  0.0mm
18:54 85.3 °F /  29.6 °C 64.6 °F /  18.1 °C 29.9in /  1012.2hPa NE 10mph /  16.1km/h 18.4mph /  29.6km/h 50% 0in /  0.0mm
18:59 84.9 °F /  29.4 °C 64.6 °F /  18.1 °C 29.9in /  1012.2hPa NE 10.4mph /  16.7km/h 18mph /  29km/h 50.7% 0in /  0.0mm
19:04 84.7 °F /  29.3 °C 64 °F /  17.8 °C 29.9in /  1012.2hPa NE 11.2mph /  18km/h 19.7mph /  31.7km/h 50.1% 0in /  0.0mm
19:09 84.7 °F /  29.3 °C 64.2 °F /  17.9 °C 29.9in /  1012.2hPa NE 10.9mph /  17.6km/h 20mph /  32.2km/h 50.3% 0in /  0.0mm
19:14 84.7 °F /  29.3 °C 64.6 °F /  18.1 °C 29.9in /  1012.2hPa NE 10.2mph /  16.4km/h 17.3mph /  27.8km/h 51% 0in /  0.0mm
19:19 84.6 °F /  29.2 °C 64.4 °F /  18 °C 29.9in /  1012.2hPa NE 10.1mph /  16.3km/h 17mph /  27.4km/h 51% 0in /  0.0mm
19:24 84.4 °F /  29.1 °C 64.4 °F /  18 °C 29.9in /  1012.1hPa ENE 10mph /  16.1km/h 16mph /  25.7km/h 51% 0in /  0.0mm
19:29 84.4 °F /  29.1 °C 64.6 °F /  18.1 °C 29.9in /  1012.1hPa ENE 9.6mph /  15.5km/h 15.9mph /  25.6km/h 51.6% 0in /  0.0mm
19:34 84 °F /  28.9 °C 64.2 °F /  17.9 °C 29.9in /  1012.1hPa NE 8.7mph /  14km/h 18.4mph /  29.6km/h 51.6% 0in /  0.0mm
19:39 83.8 °F /  28.8 °C 63.9 °F /  17.7 °C 29.9in /  1012.1hPa NE 9.3mph /  15km/h 19.6mph /  31.5km/h 51.2% 0in /  0.0mm
19:44 83.7 °F /  28.7 °C 64 °F /  17.8 °C 29.9in /  1012.1hPa NE 10.7mph /  17.2km/h 20mph /  32.2km/h 51.6% 0in /  0.0mm
19:49 83.7 °F /  28.7 °C 63.9 °F /  17.7 °C 29.9in /  1012.1hPa NE 10.4mph /  16.8km/h 18mph /  29km/h 51.5% 0in /  0.0mm
19:54 83.7 °F /  28.7 °C 64.6 °F /  18.1 °C 29.9in /  1012.1hPa NE 9.7mph /  15.6km/h 14mph /  22.5km/h 52.9% 0in /  0.0mm
19:59 83.5 °F /  28.6 °C 64 °F /  17.8 °C 29.9in /  1012.1hPa NE 9.1mph /  14.7km/h 14mph /  22.5km/h 52.1% 0in /  0.0mm
20:04 83.5 °F /  28.6 °C 64 °F /  17.8 °C 29.9in /  1012.2hPa NE 8.1mph /  13km/h 13.8mph /  22.2km/h 52% 0in /  0.0mm
20:09 83.3 °F /  28.5 °C 63.9 °F /  17.7 °C 29.9in /  1012.2hPa NE 7.9mph /  12.7km/h 14mph /  22.5km/h 52% 0in /  0.0mm
20:14 83.1 °F /  28.4 °C 63.7 °F /  17.6 °C 29.9in /  1012.2hPa NE 7.4mph /  11.9km/h 14mph /  22.5km/h 52% 0in /  0.0mm
20:19 82.9 °F /  28.3 °C 64 °F /  17.8 °C 29.9in /  1012.3hPa ENE 7.3mph /  11.7km/h 13.8mph /  22.2km/h 53.1% 0in /  0.0mm
20:24 82.8 °F /  28.2 °C 63.9 °F /  17.7 °C 29.9in /  1012.3hPa ENE 6.9mph /  11.1km/h 15.2mph /  24.5km/h 52.8% 0in /  0.0mm
20:29 82.6 °F /  28.1 °C 63.5 °F /  17.5 °C 29.9in /  1012.3hPa ENE 7.3mph /  11.7km/h 16.1mph /  25.9km/h 52.4% 0in /  0.0mm
20:34 82.4 °F /  28 °C 64 °F /  17.8 °C 29.9in /  1012.5hPa NE 8.1mph /  13km/h 16.1mph /  25.9km/h 53.9% 0in /  0.0mm
20:39 82.2 °F /  27.9 °C 64.2 °F /  17.9 °C 29.9in /  1012.5hPa NE 8.3mph /  13.3km/h 16.1mph /  25.9km/h 54.8% 0in /  0.0mm
20:44 82 °F /  27.8 °C 64.2 °F /  17.9 °C 29.9in /  1012.5hPa ENE 8.7mph /  14km/h 14mph /  22.5km/h 55% 0in /  0.0mm
20:49 81.9 °F /  27.7 °C 64.2 °F /  17.9 °C 29.9in /  1012.5hPa ENE 8.5mph /  13.7km/h 15.2mph /  24.5km/h 55.1% 0in /  0.0mm
20:54 81.7 °F /  27.6 °C 64.4 °F /  18 °C 29.9in /  1012.4hPa NE 8.1mph /  13km/h 15mph /  24.1km/h 56% 0in /  0.0mm
20:59 81.3 °F /  27.4 °C 64 °F /  17.8 °C 29.9in /  1012.4hPa NE 8.2mph /  13.2km/h 15mph /  24.1km/h 56% 0in /  0.0mm
21:04 81.1 °F /  27.3 °C 64 °F /  17.8 °C 29.9in /  1012.5hPa ENE 8.5mph /  13.7km/h 14mph /  22.5km/h 56% 0in /  0.0mm
21:09 81.1 °F /  27.3 °C 64 °F /  17.8 °C 29.9in /  1012.5hPa ENE 8mph /  12.9km/h 16.1mph /  25.9km/h 56% 0in /  0.0mm
21:14 81 °F /  27.2 °C 64.2 °F /  17.9 °C 29.9in /  1012.5hPa NE 6.9mph /  11.1km/h 16mph /  25.7km/h 56.6% 0in /  0.0mm
21:19 81 °F /  27.2 °C 64.8 °F /  18.2 °C 29.9in /  1012.6hPa NE 6.7mph /  10.8km/h 13mph /  20.9km/h 58.3% 0in /  0.0mm
21:24 80.4 °F /  26.9 °C 64.9 °F /  18.3 °C 29.9in /  1012.6hPa NE 6.2mph /  10km/h 16.1mph /  25.9km/h 59% 0in /  0.0mm
21:29 80.2 °F /  26.8 °C 64.6 °F /  18.1 °C 29.9in /  1012.6hPa NE 6.8mph /  10.9km/h 16mph /  25.7km/h 59% 0in /  0.0mm
21:34 80.1 °F /  26.7 °C 64.4 °F /  18 °C 29.9in /  1012.7hPa NE 8.1mph /  13km/h 16.1mph /  25.9km/h 59% 0in /  0.0mm
21:39 79.9 °F /  26.6 °C 64.6 °F /  18.1 °C 29.9in /  1012.7hPa NE 8.3mph /  13.3km/h 16mph /  25.7km/h 59.5% 0in /  0.0mm
21:44 79.9 °F /  26.6 °C 64.8 °F /  18.2 °C 29.9in /  1012.7hPa NE 8.7mph /  14km/h 14mph /  22.5km/h 60% 0in /  0.0mm
21:49 79.7 °F /  26.5 °C 64.6 °F /  18.1 °C 29.9in /  1012.7hPa NE 8mph /  12.9km/h 13mph /  20.9km/h 60.1% 0in /  0.0mm
21:54 79.5 °F /  26.4 °C 64.9 °F /  18.3 °C 29.9in /  1012.7hPa NE 6.4mph /  10.3km/h 10mph /  16.1km/h 61% 0in /  0.0mm
21:59 79.5 °F /  26.4 °C 64.9 °F /  18.3 °C 29.9in /  1012.7hPa NE 5.8mph /  9.4km/h 9.2mph /  14.8km/h 61.1% 0in /  0.0mm
22:04 79.3 °F /  26.3 °C 65.3 °F /  18.5 °C 29.9in /  1012.8hPa NE 4.7mph /  7.6km/h 10.7mph /  17.2km/h 62.1% 0in /  0.0mm
22:09 79.2 °F /  26.2 °C 65.5 °F /  18.6 °C 29.9in /  1012.8hPa NE 5.2mph /  8.3km/h 11mph /  17.7km/h 63% 0in /  0.0mm
22:14 79.2 °F /  26.2 °C 65.8 °F /  18.8 °C 29.9in /  1012.8hPa NE 6.2mph /  10km/h 11.5mph /  18.5km/h 63.7% 0in /  0.0mm
22:19 79 °F /  26.1 °C 66 °F /  18.9 °C 29.9in /  1012.9hPa NE 6.6mph /  10.6km/h 12mph /  19.3km/h 64.6% 0in /  0.0mm
22:24 79 °F /  26.1 °C 66.2 °F /  19 °C 29.9in /  1012.9hPa NE 7.4mph /  11.9km/h 12mph /  19.3km/h 65% 0in /  0.0mm
22:29 78.8 °F /  26 °C 66 °F /  18.9 °C 29.9in /  1012.9hPa NE 7.3mph /  11.7km/h 13mph /  20.9km/h 65% 0in /  0.0mm
22:34 78.8 °F /  26 °C 66 °F /  18.9 °C 29.9in /  1013.2hPa NE 6.9mph /  11.1km/h 13mph /  20.9km/h 65.2% 0in /  0.0mm
22:39 78.6 °F /  25.9 °C 66.4 °F /  19.1 °C 29.9in /  1013.2hPa NE 6.6mph /  10.6km/h 11mph /  17.7km/h 66% 0in /  0.0mm
22:44 78.4 °F /  25.8 °C 66.2 °F /  19 °C 29.9in /  1013.2hPa NE 5.9mph /  9.5km/h 9.2mph /  14.8km/h 66% 0in /  0.0mm
22:49 78.4 °F /  25.8 °C 66.2 °F /  19 °C 29.9in /  1013.4hPa NE 6mph /  9.6km/h 9mph /  14.5km/h 66% 0in /  0.0mm
22:54 78.4 °F /  25.8 °C 66.6 °F /  19.2 °C 29.9in /  1013.4hPa NE 6.2mph /  10km/h 9.2mph /  14.8km/h 66.9% 0in /  0.0mm
22:59 78.3 °F /  25.7 °C 66.4 °F /  19.1 °C 29.9in /  1013.4hPa NE 6mph /  9.6km/h 9.2mph /  14.8km/h 67% 0in /  0.0mm
23:04 78.3 °F /  25.7 °C 66.4 °F /  19.1 °C 29.9in /  1013.6hPa NE 5.4mph /  8.7km/h 9.7mph /  15.6km/h 67% 0in /  0.0mm
23:09 78.3 °F /  25.7 °C 66.4 °F /  19.1 °C 29.9in /  1013.6hPa NE 5.5mph /  8.9km/h 10mph /  16.1km/h 67% 0in /  0.0mm
23:14 78.1 °F /  25.6 °C 66.2 °F /  19 °C 29.9in /  1013.6hPa NE 5.9mph /  9.5km/h 8mph /  12.9km/h 67% 0in /  0.0mm
23:19 78.1 °F /  25.6 °C 66.6 °F /  19.2 °C 29.9in /  1013.7hPa NE 5.4mph /  8.7km/h 6.4mph /  10.3km/h 67.6% 0in /  0.0mm
23:24 77.9 °F /  25.5 °C 66.6 °F /  19.2 °C 29.9in /  1013.7hPa NE 4.3mph /  6.9km/h 7.4mph /  11.9km/h 68% 0in /  0.0mm
23:29 77.9 °F /  25.5 °C 66.6 °F /  19.2 °C 29.9in /  1013.7hPa NE 4.2mph /  6.8km/h 7mph /  11.3km/h 68% 0in /  0.0mm
23:34 77.7 °F /  25.4 °C 66.6 °F /  19.2 °C 29.9in /  1013.8hPa NE 4mph /  6.5km/h 6.9mph /  11.1km/h 68.6% 0in /  0.0mm
23:39 77.7 °F /  25.4 °C 66.7 °F /  19.3 °C 29.9in /  1013.8hPa NE 3.7mph /  5.9km/h 7mph /  11.3km/h 69% 0in /  0.0mm
23:44 77.5 °F /  25.3 °C 66.6 °F /  19.2 °C 29.9in /  1013.8hPa NE 2.9mph /  4.7km/h 5.9mph /  9.5km/h 69% 0in /  0.0mm
23:49 77.5 °F /  25.3 °C 66.7 °F /  19.3 °C 29.9in /  1013.8hPa NE 3.1mph /  5km/h 6mph /  9.7km/h 69.3% 0in /  0.0mm
23:54 77.5 °F /  25.3 °C 66.9 °F /  19.4 °C 29.9in /  1013.8hPa NE 3.6mph /  5.8km/h 6.9mph /  11.1km/h 70% 0in /  0.0mm
23:59 77.4 °F /  25.2 °C 66.9 °F /  19.4 °C 29.9in /  1013.8hPa NE 3.9mph /  6.2km/h 7mph /  11.3km/h 70% 0in /  0.0mm
Murcia-Puente Tocinos, España
Compliments of Weather Underground - 2.75 mb

La estación de MeteoMurcia.com, publica sus datos en los siguientes proyectos:

Weather Underground PWS IMURCIAP2 Meteoclimatic www.awekas.at

W3Counter
Web Analytics